Time;durP1;ratioP1;P1;durP2;ratioP2;P2;SDS_P1;SDS_P2;PMS_P1;PMS_P2;Temp;Humidity;BMP_temperature;BMP_pressure;BME280_temperature;BME280_humidity;BME280_pressure;Samples;Min_cycle;Max_cycle;Signal;HPM_P1;HPM_P2
2021/11/20 00:00:21;;;;;;;5.20;4.75;;;;;;;9.10;100.00;98600.94;1707453;83;21062;-79
2021/11/20 00:02:48;;;;;;;5.37;4.75;;;;;;;9.14;100.00;98599.86;1676091;83;21067;-87
2021/11/20 00:05:20;;;;;;;5.87;4.90;;;;;;;9.16;100.00;98599.05;1708792;82;21477;-83
2021/11/20 00:07:47;;;;;;;4.70;3.90;;;;;;;9.18;100.00;98603.62;1673151;84;21126;-78
2021/11/20 00:10:14;;;;;;;4.05;3.60;;;;;;;9.16;100.00;98590.47;1698749;84;21078;-78
2021/11/20 00:12:41;;;;;;;5.03;4.55;;;;;;;9.15;100.00;98582.70;1707680;83;21027;-82
2021/11/20 00:15:14;;;;;;;2.92;2.72;;;;;;;9.13;100.00;98588.33;1673150;84;21532;-79
2021/11/20 00:17:41;;;;;;;3.87;3.35;;;;;;;9.12;100.00;98582.69;1648497;85;20983;-77
2021/11/20 00:20:11;;;;;;;3.17;2.90;;;;;;;9.12;100.00;98570.63;1673898;84;20986;-89
2021/11/20 00:22:42;;;;;;;3.08;2.70;;;;;;;9.14;100.00;98567.14;1655894;85;20971;-77
2021/11/20 00:25:20;;;;;;;5.10;2.92;;;;;;;9.16;100.00;98575.71;1659016;84;21019;-80
2021/11/20 00:27:43;;;;;;;3.42;3.02;;;;;;;9.15;100.00;98565.27;1699688;84;21077;-78
2021/11/20 00:30:17;;;;;;;3.37;2.83;;;;;;;9.17;100.00;98569.81;1683333;83;21104;-79
2021/11/20 00:33:00;;;;;;;3.47;3.05;;;;;;;9.20;100.00;98550.52;1710982;83;21082;-78
2021/11/20 00:35:37;;;;;;;3.02;2.83;;;;;;;9.23;100.00;98546.48;1684453;84;21480;-77
2021/11/20 00:38:05;;;;;;;5.53;3.47;;;;;;;9.24;100.00;98536.83;1662882;83;21149;-74
2021/11/20 00:40:42;;;;;;;3.22;2.95;;;;;;;9.27;100.00;98526.89;1690372;84;21154;-76
2021/11/20 00:43:09;;;;;;;3.62;3.35;;;;;;;9.31;100.00;98525.81;1695013;83;21031;-74
2021/11/20 00:45:37;;;;;;;3.55;3.22;;;;;;;9.36;100.00;98518.56;1695607;83;21082;-80
2021/11/20 00:48:05;;;;;;;2.92;2.72;;;;;;;9.37;100.00;98516.69;1692421;83;21540;-74
2021/11/20 00:50:32;;;;;;;3.72;3.42;;;;;;;9.38;100.00;98512.41;1680722;83;21054;-74
2021/11/20 00:52:59;;;;;;;5.20;3.70;;;;;;;9.36;100.00;98513.20;1689679;83;21086;-73
2021/11/20 00:55:27;;;;;;;3.72;3.42;;;;;;;9.37;100.00;98511.32;1668317;84;21050;-75
2021/11/20 00:57:55;;;;;;;3.35;3.08;;;;;;;9.38;100.00;98497.64;1690843;84;20950;-74
2021/11/20 01:00:26;;;;;;;4.78;3.47;;;;;;;9.40;100.00;98485.31;1678825;84;21071;-75
2021/11/20 01:02:53;;;;;;;3.80;3.50;;;;;;;9.41;100.00;98479.65;1692249;83;21004;-72
2021/11/20 01:05:20;;;;;;;3.92;3.47;;;;;;;9.41;100.00;98478.31;1675219;84;21122;-90
2021/11/20 01:07:47;;;;;;;3.27;3.02;;;;;;;9.43;100.00;98476.70;1692876;83;21022;-88
2021/11/20 01:10:16;;;;;;;4.28;3.90;;;;;;;9.44;100.00;98475.63;1721208;81;21015;-93
2021/11/20 01:12:43;;;;;;;3.75;3.47;;;;;;;9.45;100.00;98465.14;1747624;81;20968;-89
2021/11/20 01:15:15;;;;;;;4.40;4.00;;;;;;;9.47;100.00;98475.08;1715930;81;20996;-86
2021/11/20 01:17:43;;;;;;;4.37;3.98;;;;;;;9.47;100.00;98474.55;1717886;82;21077;-83
2021/11/20 01:20:13;;;;;;;7.22;4.72;;;;;;;9.49;100.00;98454.97;1709416;81;22355;-85
2021/11/20 01:22:50;;;;;;;5.28;4.58;;;;;;;9.51;100.00;98444.74;1729339;81;21035;-88
2021/11/20 01:25:35;;;;;;;4.33;3.92;;;;;;;9.53;100.00;98428.38;1723701;81;21032;-84
2021/11/20 01:28:14;;;;;;;5.00;4.60;;;;;;;9.56;100.00;98434.52;1712284;81;21023;-86
2021/11/20 01:30:48;;;;;;;4.35;4.00;;;;;;;9.55;100.00;98422.98;1736185;81;21084;-87
2021/11/20 01:33:18;;;;;;;5.20;4.40;;;;;;;9.59;100.00;98424.60;1719514;81;21019;-83
2021/11/20 01:35:45;;;;;;;5.80;5.15;;;;;;;9.60;100.00;98424.84;1746570;81;21067;-84
2021/11/20 01:38:13;;;;;;;5.15;4.75;;;;;;;9.63;100.00;98425.13;1725637;81;21080;-82
2021/11/20 01:40:42;;;;;;;6.00;5.37;;;;;;;9.66;100.00;98404.97;1707131;81;21118;-79
2021/11/20 01:43:10;;;;;;;6.30;5.70;;;;;;;9.68;100.00;98408.73;1702059;81;21240;-79
2021/11/20 01:45:51;;;;;;;5.30;4.83;;;;;;;9.70;100.00;98402.52;1720827;82;21045;-82
2021/11/20 01:48:54;;;;;;;5.58;5.08;;;;;;;9.75;100.00;98427.47;1713625;82;21579;-82
2021/11/20 01:51:35;;;;;;;5.60;4.95;;;;;;;9.78;100.00;98379.95;1713786;81;20998;-82
2021/11/20 01:54:33;;;;;;;6.00;5.30;;;;;;;9.82;100.00;98374.83;1750881;81;20936;-82
2021/11/20 01:57:53;;;;;;;5.45;4.95;;;;;;;9.85;100.00;98382.31;1730902;81;21067;-81
2021/11/20 02:00:29;;;;;;;5.53;5.08;;;;;;;9.89;100.00;98372.63;1725992;81;21540;-81
2021/11/20 02:03:38;;;;;;;4.65;4.25;;;;;;;9.92;100.00;98348.73;1684992;84;21011;-84
2021/11/20 02:06:31;;;;;;;5.12;4.62;;;;;;;9.95;100.00;98366.15;1649485;85;21082;-82
2021/11/20 02:09:05;;;;;;;6.85;4.62;;;;;;;10.00;100.00;98362.09;1634068;85;21071;-81
2021/11/20 02:11:50;;;;;;;5.22;4.62;;;;;;;10.04;100.00;98358.57;1655157;83;21820;-81
2021/11/20 02:14:19;;;;;;;;;;;;;;;10.07;100.00;98350.52;1649185;85;21042;-80
2021/11/20 02:16:53;;;;;;;6.42;5.87;;;;;;;10.13;100.00;98348.03;1662203;84;20111;-82
2021/11/20 02:19:28;;;;;;;5.72;4.87;;;;;;;10.13;100.00;98333.80;1706147;83;21106;-81
2021/11/20 02:22:14;;;;;;;4.72;4.30;;;;;;;10.19;100.00;98346.95;1700405;83;20947;-81
2021/11/20 02:24:40;;;;;;;7.37;5.25;;;;;;;10.25;100.00;98324.87;1622296;84;21003;-82
2021/11/20 02:27:25;;;;;;;4.83;4.33;;;;;;;10.31;100.00;98339.89;1699429;83;21121;-78
2021/11/20 02:30:33;;;;;;;4.05;3.62;;;;;;;10.35;100.00;98340.39;1674185;84;21417;-76
2021/11/20 02:33:11;;;;;;;4.45;4.05;;;;;;;10.40;100.00;98347.61;1697792;83;21047;-79
2021/11/20 02:35:44;;;;;;;3.42;3.12;;;;;;;10.44;100.00;98319.08;1682247;83;21061;-89
2021/11/20 02:38:15;;;;;;;4.37;3.98;;;;;;;10.48;100.00;98314.20;1701398;83;21040;-84
2021/11/20 02:40:42;;;;;;;3.77;3.47;;;;;;;10.53;100.00;98312.00;1679151;83;20951;-86
2021/11/20 02:43:08;;;;;;;4.58;4.17;;;;;;;10.58;100.00;98305.77;1730503;82;20940;-83
2021/11/20 02:45:40;;;;;;;4.10;3.80;;;;;;;10.58;100.00;98295.83;1716385;82;21126;-83
2021/11/20 02:48:07;;;;;;;3.95;3.55;;;;;;;10.59;100.00;98297.44;1699528;83;21412;-84
2021/11/20 02:50:46;;;;;;;4.22;3.62;;;;;;;10.60;100.00;98307.66;1672551;84;21090;-82
2021/11/20 02:53:36;;;;;;;3.80;3.50;;;;;;;10.61;100.00;98288.53;1700233;84;21056;-83
2021/11/20 02:56:05;;;;;;;9.93;3.17;;;;;;;10.66;100.00;98301.12;1700415;84;21027;-83
2021/11/20 02:58:33;;;;;;;3.92;3.52;;;;;;;10.68;100.00;98290.89;1674877;83;21075;-82
2021/11/20 03:01:06;;;;;;;5.40;3.52;;;;;;;10.70;100.00;98292.73;1725752;83;20996;-82
2021/11/20 03:03:34;;;;;;;4.47;4.05;;;;;;;10.75;100.00;98301.56;1701965;83;21120;-82
2021/11/20 03:06:00;;;;;;;3.77;3.42;;;;;;;10.78;100.00;98286.76;1703577;83;20971;-82
2021/11/20 03:08:27;;;;;;;3.17;2.98;;;;;;;10.80;100.00;98296.13;1708747;82;21091;-81
2021/11/20 03:10:55;;;;;;;3.12;2.83;;;;;;;10.84;100.00;98286.94;1661401;85;21059;-84
2021/11/20 03:13:21;;;;;;;3.83;3.52;;;;;;;10.86;100.00;98305.75;1664308;84;20985;-84
2021/11/20 03:15:49;;;;;;;7.67;3.75;;;;;;;10.89;100.00;98318.62;1678752;84;21139;-87
2021/11/20 03:18:17;;;;;;;3.20;2.95;;;;;;;10.92;100.00;98293.86;1660361;85;21122;-89
2021/11/20 03:20:45;;;;;;;2.90;2.62;;;;;;;10.94;100.00;98293.02;1653307;84;21547;-86
2021/11/20 03:23:30;;;;;;;4.55;3.22;;;;;;;10.98;100.00;98305.91;1702404;83;20967;-91
2021/11/20 03:25:57;;;;;;;6.47;3.42;;;;;;;11.00;100.00;98293.77;1675246;83;21095;-91
2021/11/20 03:28:23;;;;;;;4.65;3.05;;;;;;;11.03;100.00;98303.94;1674313;85;22179;-90
2021/11/20 03:30:52;;;;;;;3.20;3.00;;;;;;;11.05;100.00;98296.94;1669388;84;20979;-92
2021/11/20 03:33:19;;;;;;;5.50;2.85;;;;;;;11.07;100.00;98323.02;1685548;83;20976;-92
2021/11/20 03:35:46;;;;;;;2.77;2.58;;;;;;;11.09;100.00;98349.08;1666052;84;21107;-91
2021/11/20 03:38:15;;;;;;;2.95;2.40;;;;;;;11.12;100.00;98279.37;1696804;83;21368;-84
2021/11/20 03:40:42;;;;;;;2.98;2.62;;;;;;;11.15;100.00;98303.55;1726963;83;21307;-88
2021/11/20 03:43:09;;;;;;;3.35;3.02;;;;;;;11.16;100.00;98302.47;1704633;83;20926;-89
2021/11/20 03:45:37;;;;;;;3.33;3.02;;;;;;;11.15;100.00;98284.17;1685469;83;21556;-89
2021/11/20 03:48:06;;;;;;;4.15;3.20;;;;;;;11.15;100.00;98312.97;1677886;84;21019;-90
2021/11/20 03:50:33;;;;;;;3.45;3.15;;;;;;;11.16;100.00;98299.23;1689406;82;21060;-90
2021/11/20 03:53:00;;;;;;;3.98;3.10;;;;;;;11.17;100.00;98283.89;1700494;83;21267;-86
2021/11/20 03:55:34;;;;;;;3.10;2.80;;;;;;;11.18;100.00;98293.55;1693759;83;21004;-91
2021/11/20 03:58:00;;;;;;;6.53;3.70;;;;;;;11.17;100.00;98286.59;1723620;83;21040;-91
2021/11/20 04:00:31;;;;;;;3.42;2.85;;;;;;;11.18;100.00;98293.00;1724582;83;21068;-88
2021/11/20 04:02:57;;;;;;;3.17;2.75;;;;;;;11.16;100.00;98307.84;1717398;83;21033;-89
2021/11/20 04:05:24;;;;;;;3.55;2.37;;;;;;;11.15;100.00;98385.61;1673976;83;21526;-84
2021/11/20 04:07:51;;;;;;;4.83;2.33;;;;;;;11.14;100.00;98300.59;1650408;83;21035;-85
2021/11/20 04:10:19;;;;;;;2.47;2.17;;;;;;;11.15;100.00;98330.45;1700377;83;21003;-87
2021/11/20 04:12:46;;;;;;;2.65;2.22;;;;;;;11.11;100.00;98306.02;1702160;84;21521;-88
2021/11/20 04:15:16;;;;;;;1.85;1.72;;;;;;;11.06;100.00;98342.40;1696458;83;21127;-89
2021/11/20 04:17:44;;;;;;;2.42;1.62;;;;;;;11.02;100.00;98309.63;1694815;84;20968;-84
2021/11/20 04:20:15;;;;;;;1.70;1.40;;;;;;;10.99;100.00;98315.02;1694729;84;21004;-82
2021/11/20 04:22:41;;;;;;;1.57;1.47;;;;;;;10.94;100.00;98330.67;1675292;84;20984;-82
2021/11/20 04:25:11;;;;;;;1.47;1.37;;;;;;;10.91;100.00;98311.63;1681136;83;21049;-81
2021/11/20 04:27:42;;;;;;;;;;;;;;;10.85;100.00;98345.83;1729834;82;21040;-86
2021/11/20 04:30:12;;;;;;;2.20;1.60;;;;;;;10.81;100.00;98349.38;1721674;83;21687;-85
2021/11/20 04:32:39;;;;;;;2.95;1.75;;;;;;;10.79;100.00;98334.08;1718652;82;21051;-86
2021/11/20 04:35:08;;;;;;;2.42;1.67;;;;;;;10.76;100.00;98350.77;1721204;83;21127;-82
2021/11/20 04:37:35;;;;;;;1.65;1.55;;;;;;;10.73;100.00;98341.39;1652442;84;21560;-86
2021/11/20 04:40:01;;;;;;;3.20;1.90;;;;;;;10.71;100.00;98321.23;1694465;84;21043;-86
2021/11/20 04:42:28;;;;;;;1.10;1.10;;;;;;;10.68;100.00;98334.72;1689741;84;22034;-81
2021/11/20 04:44:55;;;;;;;2.52;1.52;;;;;;;10.68;100.00;98325.31;1676277;83;21031;-80
2021/11/20 04:47:21;;;;;;;1.35;1.10;;;;;;;10.64;100.00;98372.67;1674716;84;20983;-81
2021/11/20 04:49:48;;;;;;;2.08;1.27;;;;;;;10.63;100.00;98348.20;1697916;83;21122;-86
2021/11/20 04:52:15;;;;;;;1.60;1.40;;;;;;;10.61;100.00;98322.67;1689694;84;21101;-87
2021/11/20 04:54:42;;;;;;;5.62;1.77;;;;;;;10.62;100.00;98313.53;1675560;84;21840;-78
2021/11/20 04:57:08;;;;;;;1.55;1.45;;;;;;;10.60;100.00;98337.22;1698233;83;20957;-79
2021/11/20 04:59:35;;;;;;;1.90;1.67;;;;;;;10.62;100.00;98310.84;1710938;82;21048;-78
2021/11/20 05:02:03;;;;;;;2.62;2.00;;;;;;;10.62;100.00;98316.22;1696798;84;21024;-77
2021/11/20 05:04:31;;;;;;;4.33;2.70;;;;;;;10.63;100.00;98323.20;1706121;82;21011;-78
2021/11/20 05:06:58;;;;;;;2.60;2.40;;;;;;;10.64;100.00;98315.41;1670973;83;21952;-79
2021/11/20 05:09:25;;;;;;;3.02;2.83;;;;;;;10.63;100.00;98322.67;1670341;86;21038;-78
2021/11/20 05:11:53;;;;;;;3.98;2.50;;;;;;;10.62;100.00;98335.03;1653694;84;21007;-78
2021/11/20 05:14:21;;;;;;;2.17;2.08;;;;;;;10.59;100.00;98350.40;1698428;84;21363;-78
2021/11/20 05:16:48;;;;;;;3.37;2.95;;;;;;;10.57;100.00;98343.95;1699309;83;21581;-76
2021/11/20 05:19:14;;;;;;;5.65;3.47;;;;;;;10.55;100.00;98338.61;1689854;84;21064;-77
2021/11/20 05:21:42;;;;;;;6.92;4.30;;;;;;;10.53;100.00;98370.34;1698066;83;21000;-79
2021/11/20 05:24:09;;;;;;;6.92;3.85;;;;;;;10.49;100.00;98340.00;1673083;84;21097;-78
2021/11/20 05:26:37;;;;;;;3.95;3.10;;;;;;;10.50;100.00;98356.93;1723295;83;21048;-78
2021/11/20 05:29:06;;;;;;;3.37;3.08;;;;;;;10.49;100.00;98353.98;1705816;82;21070;-78
2021/11/20 05:31:34;;;;;;;4.00;3.00;;;;;;;10.48;100.00;98367.15;1729529;83;22169;-79
2021/11/20 05:34:06;;;;;;;6.05;3.35;;;;;;;10.47;100.00;98394.56;1729413;83;20895;-77
2021/11/20 05:36:35;;;;;;;4.53;2.83;;;;;;;10.44;100.00;98361.55;1705737;83;20995;-78
2021/11/20 05:39:04;;;;;;;5.28;3.12;;;;;;;10.41;100.00;98391.65;1664431;84;21022;-77
2021/11/20 05:41:31;;;;;;;7.35;2.80;;;;;;;10.38;100.00;98382.81;1675815;84;20978;-78
2021/11/20 05:43:59;;;;;;;7.12;2.92;;;;;;;10.36;100.00;98366.72;1698597;84;21147;-77
2021/11/20 05:46:28;;;;;;;4.75;2.70;;;;;;;10.36;100.00;98388.22;1698037;83;20931;-77
2021/11/20 05:48:55;;;;;;;9.98;3.42;;;;;;;10.35;100.00;98372.64;1700283;84;21009;-80
2021/11/20 05:51:22;;;;;;;8.93;2.60;;;;;;;10.31;100.00;98395.75;1673984;84;20974;-79
2021/11/20 05:53:49;;;;;;;7.85;2.85;;;;;;;10.29;100.00;98388.52;1700383;84;21089;-80
2021/11/20 05:56:17;;;;;;;5.60;2.90;;;;;;;10.27;100.00;98371.87;1714820;83;20996;-78
2021/11/20 05:58:45;;;;;;;4.67;2.40;;;;;;;10.25;100.00;98356.58;1730142;83;21014;-77
2021/11/20 06:01:14;;;;;;;4.08;2.22;;;;;;;10.25;100.00;98384.80;1727725;83;21677;-85
2021/11/20 06:03:44;;;;;;;5.40;2.60;;;;;;;10.24;100.00;98364.38;1701473;83;20935;-87
2021/11/20 06:06:10;;;;;;;3.47;2.02;;;;;;;10.22;100.00;98389.37;1699756;83;21069;-84
2021/11/20 06:08:38;;;;;;;3.27;2.52;;;;;;;10.24;100.00;98363.58;1700710;83;21113;-85
2021/11/20 06:11:06;;;;;;;2.55;2.00;;;;;;;10.22;100.00;98377.28;1720364;82;20999;-86
2021/11/20 06:13:34;;;;;;;4.42;2.37;;;;;;;10.22;100.00;98377.81;1698860;84;21183;-87
2021/11/20 06:16:12;;;;;;;3.67;2.30;;;;;;;10.22;100.00;98402.00;1694085;84;21457;-84
2021/11/20 06:18:40;;;;;;;5.62;4.12;;;;;;;10.21;100.00;98378.38;1674909;84;21023;-86
2021/11/20 06:21:07;;;;;;;6.55;2.62;;;;;;;10.20;100.00;98368.71;1704116;83;21126;-91
2021/11/20 06:23:40;;;;;;;6.12;2.77;;;;;;;10.20;100.00;98364.68;1699066;84;21058;-84
2021/11/20 06:26:19;;;;;;;7.58;3.60;;;;;;;10.22;100.00;98388.02;1699975;83;21031;-86
2021/11/20 06:28:47;;;;;;;9.00;2.90;;;;;;;10.21;100.00;98409.28;1679743;84;21081;-82
2021/11/20 06:31:15;;;;;;;4.72;2.45;;;;;;;10.25;100.00;98388.83;1687483;83;21052;-79
2021/11/20 06:33:45;;;;;;;7.00;2.70;;;;;;;10.25;100.00;98392.05;1673442;84;21870;-81
2021/11/20 06:36:31;;;;;;;5.45;2.75;;;;;;;10.27;100.00;98393.91;1699775;84;20939;-82
2021/11/20 06:39:03;;;;;;;9.18;3.10;;;;;;;10.29;100.00;98422.12;1705678;83;20987;-79
2021/11/20 06:41:29;;;;;;;4.03;2.52;;;;;;;10.29;99.93;98372.41;1701869;83;21102;-79
2021/11/20 06:43:56;;;;;;;6.95;4.22;;;;;;;10.32;99.31;98387.95;1729349;82;21500;-86
2021/11/20 06:46:23;;;;;;;7.00;2.95;;;;;;;10.36;99.09;98370.19;1728265;83;21170;-80
2021/11/20 06:48:49;;;;;;;5.20;3.30;;;;;;;10.41;98.96;98371.49;1700098;83;20944;-80
2021/11/20 06:51:23;;;;;;;6.40;2.92;;;;;;;10.42;98.28;98390.58;1705016;83;21027;-81
2021/11/20 06:54:02;;;;;;;6.22;2.45;;;;;;;10.46;97.51;98394.84;1702140;83;20963;-81
2021/11/20 06:56:42;;;;;;;7.08;2.72;;;;;;;10.50;96.15;98390.53;1688379;84;21039;-82
2021/11/20 07:01:52;;;;;;;8.35;3.00;;;;;;;10.63;93.52;98393.91;1640231;87;20966;-86
2021/11/20 07:04:25;;;;;;;6.83;3.08;;;;;;;10.70;93.05;98391.69;1611328;85;21014;-86
2021/11/20 07:07:02;;;;;;;2.72;2.20;;;;;;;10.75;93.00;98374.70;1727612;82;20955;-82
2021/11/20 07:09:29;;;;;;;9.00;2.80;;;;;;;10.80;91.55;98376.00;1691952;84;21023;-83
2021/11/20 07:11:58;;;;;;;4.45;2.30;;;;;;;10.84;89.42;98388.59;1674112;84;20994;-85
2021/11/20 07:14:25;;;;;;;3.65;2.33;;;;;;;10.90;88.99;98391.51;1699557;84;21046;-81
2021/11/20 07:16:53;;;;;;;5.05;2.90;;;;;;;10.97;88.45;98362.14;1649947;84;21025;-84
2021/11/20 07:19:20;;;;;;;6.67;3.17;;;;;;;11.01;88.10;98369.89;1707142;83;21088;-83
2021/11/20 07:22:05;;;;;;;7.65;3.15;;;;;;;11.01;87.26;98374.73;1705289;83;21079;-87
2021/11/20 07:24:36;;;;;;;10.38;2.83;;;;;;;11.01;87.18;98372.04;1706840;83;21400;-89
2021/11/20 07:27:05;;;;;;;6.12;2.52;;;;;;;11.01;86.31;98393.56;1673633;84;21026;-89
2021/11/20 07:29:32;;;;;;;9.93;3.70;;;;;;;11.01;84.72;98410.24;1708026;83;21033;-89
2021/11/20 07:32:00;;;;;;;5.83;3.37;;;;;;;11.01;85.11;98394.10;1668560;84;21072;-90
2021/11/20 07:34:26;;;;;;;6.65;2.55;;;;;;;11.00;84.84;98381.73;1690265;84;21026;-87
2021/11/20 07:36:55;;;;;;;5.50;2.25;;;;;;;11.00;84.56;98395.98;1648891;85;20995;-90
2021/11/20 07:39:22;;;;;;;5.92;2.40;;;;;;;10.98;83.95;98406.25;1658855;83;21519;-84
2021/11/20 07:41:51;;;;;;;4.42;2.47;;;;;;;10.98;82.56;98441.76;1731148;82;20993;-87
2021/11/20 07:44:19;;;;;;;5.80;2.42;;;;;;;10.99;82.56;98412.41;1673174;84;20933;-84
2021/11/20 07:46:47;;;;;;;8.85;2.92;;;;;;;11.00;81.65;98482.61;1704029;83;20967;-87
2021/11/20 07:49:15;;;;;;;6.92;2.83;;;;;;;11.02;81.42;98439.56;1705071;82;21064;-87
2021/11/20 07:51:42;;;;;;;7.00;2.30;;;;;;;11.02;81.20;98408.63;1677086;84;20907;-85
2021/11/20 07:54:09;;;;;;;5.42;2.52;;;;;;;11.01;80.37;98427.73;1675756;84;21006;-80
2021/11/20 07:56:43;;;;;;;10.03;2.60;;;;;;;11.02;80.07;98430.15;1696502;84;21045;-83
2021/11/20 07:59:14;;;;;;;9.35;2.45;;;;;;;11.04;80.29;98443.30;1701034;83;21078;-77
2021/11/20 08:01:41;;;;;;;8.13;2.50;;;;;;;11.04;79.92;98439.26;1698961;84;21190;-82
2021/11/20 08:04:08;;;;;;;6.03;2.85;;;;;;;11.04;79.97;98434.69;1698684;84;21571;-78
2021/11/20 08:06:36;;;;;;;5.17;2.70;;;;;;;11.05;79.15;98463.20;1694374;84;20967;-80
2021/11/20 08:09:09;;;;;;;;;;;;;;;11.06;78.89;98452.70;1683590;83;21557;-80
2021/11/20 08:11:56;;;;;;;8.05;2.35;;;;;;;11.06;78.35;98532.61;1698056;84;20171;-92
2021/11/20 08:14:25;;;;;;;8.20;2.75;;;;;;;11.11;77.65;98434.36;1700776;83;21002;-85
2021/11/20 08:16:54;;;;;;;7.00;2.37;;;;;;;11.14;76.72;98510.47;1711259;83;20936;-85
2021/11/20 08:19:28;;;;;;;8.33;2.65;;;;;;;11.18;75.74;98506.94;1727573;83;21090;-87
2021/11/20 08:22:05;;;;;;;8.08;2.47;;;;;;;11.24;75.68;98451.19;1669475;84;21077;-91
2021/11/20 08:24:35;;;;;;;12.13;2.85;;;;;;;11.30;75.04;98503.88;1668994;85;20979;-86
2021/11/20 08:27:02;;;;;;;6.20;2.72;;;;;;;11.36;73.27;98533.71;1672105;85;21515;-84
2021/11/20 08:29:32;;;;;;;11.60;3.20;;;;;;;11.45;72.69;98473.33;1646862;84;21562;-84
2021/11/20 08:31:59;;;;;;;9.23;3.20;;;;;;;11.51;72.96;98485.66;1672188;85;21539;-83
2021/11/20 08:34:30;;;;;;;5.65;2.50;;;;;;;11.54;72.75;98523.58;1670734;84;21078;-83
2021/11/20 08:37:07;;;;;;;11.50;3.60;;;;;;;11.55;71.43;98475.38;1672283;85;20987;-86
2021/11/20 08:39:36;;;;;;;11.03;2.80;;;;;;;11.56;71.96;98489.07;1681250;83;21688;-79
2021/11/20 08:42:03;;;;;;;9.43;2.80;;;;;;;11.56;71.51;98448.68;1700470;83;21061;-80
2021/11/20 08:44:31;;;;;;;12.28;3.22;;;;;;;11.58;71.32;98449.75;1677005;83;21512;-84
2021/11/20 08:47:00;;;;;;;7.95;2.83;;;;;;;11.57;70.61;98457.56;1688219;83;21038;-79
2021/11/20 08:49:28;;;;;;;6.62;2.52;;;;;;;11.55;70.64;98449.80;1685611;84;21070;-79
2021/11/20 08:51:55;;;;;;;5.53;2.37;;;;;;;11.52;70.53;98447.66;1687845;84;21794;-82
2021/11/20 08:54:23;;;;;;;7.72;2.85;;;;;;;11.51;69.62;98427.20;1673691;85;21113;-79
2021/11/20 08:56:55;;;;;;;7.53;3.42;;;;;;;11.54;69.31;98462.99;1687914;84;21022;-78
2021/11/20 08:59:26;;;;;;;7.05;3.30;;;;;;;11.56;69.80;98422.33;1701742;83;21020;-84
2021/11/20 09:02:30;;;;;;;11.38;4.03;;;;;;;11.56;69.10;98450.59;1700672;84;22026;-85
2021/11/20 09:05:07;;;;;;;8.00;2.60;;;;;;;11.56;68.89;98427.14;1672965;84;21441;-82
2021/11/20 09:07:49;;;;;;;8.75;2.75;;;;;;;11.58;68.87;98449.75;1693652;83;21028;-84
2021/11/20 09:10:38;;;;;;;5.67;2.17;;;;;;;11.60;68.01;98463.20;1716577;83;21541;-81
2021/11/20 09:13:19;;;;;;;8.20;2.90;;;;;;;11.64;67.79;98444.57;1695604;83;21532;-81
2021/11/20 09:15:55;;;;;;;12.78;3.50;;;;;;;11.67;67.39;98504.04;1716961;83;21051;-86
2021/11/20 09:18:24;;;;;;;6.60;2.70;;;;;;;11.71;66.63;98440.43;1691189;83;21754;-83
2021/11/20 09:20:52;;;;;;;9.25;2.52;;;;;;;11.73;66.06;98446.37;1689253;83;21055;-85
2021/11/20 09:23:33;;;;;;;5.58;2.27;;;;;;;11.77;65.62;98485.11;1654712;86;21464;-84
2021/11/20 09:26:01;;;;;;;8.53;2.45;;;;;;;11.82;64.82;98464.05;1676005;83;21011;-84
2021/11/20 09:28:29;;;;;;;8.05;2.55;;;;;;;11.86;63.21;98425.20;1683072;84;21055;-84
2021/11/20 09:30:59;;;;;;;5.12;2.80;;;;;;;11.91;63.21;98505.42;1674188;84;21906;-84
2021/11/20 09:33:26;;;;;;;4.90;2.50;;;;;;;11.96;63.47;98465.48;1692091;83;21003;-81
2021/11/20 09:35:54;;;;;;;15.35;3.10;;;;;;;12.00;62.67;98459.77;1689423;83;21476;-84
2021/11/20 09:38:38;;;;;;;6.40;2.25;;;;;;;12.01;62.37;98434.44;1648383;84;21070;-86
2021/11/20 09:41:21;;;;;;;8.75;3.15;;;;;;;11.98;62.02;98468.71;1682261;84;21076;-86
2021/11/20 09:43:54;;;;;;;12.65;3.15;;;;;;;11.93;61.77;98456.11;1665424;85;21197;-86
2021/11/20 09:46:31;;;;;;;7.80;2.22;;;;;;;11.90;62.02;98458.01;1666841;84;21037;-82
2021/11/20 09:49:06;;;;;;;8.13;2.87;;;;;;;11.88;61.24;98450.78;1686560;84;21014;-83
2021/11/20 09:51:41;;;;;;;9.53;2.77;;;;;;;11.88;61.81;98470.98;1688387;84;21087;-83
2021/11/20 09:54:16;;;;;;;5.20;2.05;;;;;;;11.88;60.77;98466.94;1678817;84;21457;-84
2021/11/20 09:56:56;;;;;;;9.60;3.12;;;;;;;11.87;61.13;98463.98;1681774;83;20941;-85
2021/11/20 10:00:17;;;;;;;6.33;2.33;;;;;;;11.86;60.57;98474.50;1662538;86;21697;-85
2021/11/20 10:02:55;;;;;;;4.65;2.37;;;;;;;11.85;60.80;98446.48;1654882;86;21215;-85
2021/11/20 10:05:27;;;;;;;6.67;2.58;;;;;;;11.80;61.06;98458.12;1663193;86;21015;-82
2021/11/20 10:08:09;;;;;;;13.95;3.98;;;;;;;11.78;61.40;98509.62;1689076;82;20993;-83
2021/11/20 10:10:50;;;;;;;8.70;2.42;;;;;;;11.78;60.69;98494.00;1701413;84;21159;-79
2021/11/20 10:13:27;;;;;;;8.53;3.55;;;;;;;11.80;60.24;98513.34;1674526;84;20959;-82
2021/11/20 10:16:15;;;;;;;10.15;2.17;;;;;;;11.81;59.18;98463.78;1659634;84;21588;-82
2021/11/20 10:19:00;;;;;;;5.85;2.98;;;;;;;11.80;58.77;98497.19;1672855;84;21000;-79
2021/11/20 10:21:40;;;;;;;7.70;3.27;;;;;;;11.79;58.24;98488.88;1682774;83;21082;-79
2021/11/20 10:24:18;;;;;;;7.15;2.70;;;;;;;11.77;58.15;98484.30;1689992;84;21029;-80
2021/11/20 10:27:13;;;;;;;6.67;3.08;;;;;;;11.74;58.14;98453.37;1700443;84;20990;-81
2021/11/20 10:30:06;;;;;;;10.08;2.35;;;;;;;11.75;58.15;98493.20;1700484;84;20986;-82
2021/11/20 10:32:50;;;;;;;6.87;2.33;;;;;;;11.76;58.43;98492.92;1698577;83;20915;-80
2021/11/20 10:35:37;;;;;;;6.17;2.47;;;;;;;11.76;57.24;98506.94;1681616;83;21097;-81
2021/11/20 10:38:13;;;;;;;11.65;2.83;;;;;;;11.79;56.68;98505.84;1729934;83;21163;-82
2021/11/20 10:40:54;;;;;;;5.30;2.35;;;;;;;11.80;56.87;98507.42;1723804;83;21053;-83
2021/11/20 10:43:37;;;;;;;13.18;2.42;;;;;;;11.82;56.54;98529.23;1674285;84;21523;-86
2021/11/20 10:46:34;;;;;;;5.12;2.15;;;;;;;11.81;56.58;98496.11;1673122;84;21039;-84
2021/11/20 10:49:33;;;;;;;9.08;3.02;;;;;;;11.82;56.34;98561.02;1673741;84;21531;-82
2021/11/20 10:52:38;;;;;;;8.50;2.90;;;;;;;11.83;56.09;98533.00;1683408;83;21116;-85
2021/11/20 10:55:22;;;;;;;12.95;3.25;;;;;;;11.87;56.15;98508.98;1708285;83;21572;-91
2021/11/20 10:58:08;;;;;;;7.80;2.77;;;;;;;11.89;54.51;98587.09;1717561;83;21004;-86
2021/11/20 11:01:18;;;;;;;8.08;2.22;;;;;;;11.89;53.79;98570.13;1668659;84;21628;-84
2021/11/20 11:03:57;;;;;;;7.60;2.67;;;;;;;11.86;53.65;98589.53;1700120;83;21027;-85
2021/11/20 11:06:54;;;;;;;6.00;2.20;;;;;;;11.80;53.81;98553.76;1705018;83;21076;-87
2021/11/20 11:09:43;;;;;;;7.78;2.65;;;;;;;11.75;53.95;98504.78;1693051;84;21058;-89
2021/11/20 11:12:29;;;;;;;6.22;2.60;;;;;;;11.73;54.28;98554.11;1625388;85;20951;-83
2021/11/20 11:15:10;;;;;;;11.18;2.60;;;;;;;11.69;54.10;98572.44;1671989;85;21562;-85
2021/11/20 11:18:22;;;;;;;6.03;2.42;;;;;;;11.67;54.57;98561.95;1679316;84;21058;-82
2021/11/20 11:21:27;;;;;;;9.10;3.05;;;;;;;11.67;54.98;98543.63;1696633;84;21051;-89
2021/11/20 11:24:26;;;;;;;9.28;2.85;;;;;;;11.63;54.29;98561.45;1691609;83;21002;-90
2021/11/20 11:27:07;;;;;;;8.68;1.90;;;;;;;11.63;54.71;98539.37;1693940;83;21016;-85
2021/11/20 11:29:46;;;;;;;8.05;2.92;;;;;;;11.62;54.27;98558.49;1692949;83;21130;-89
2021/11/20 11:32:13;;;;;;;6.22;2.35;;;;;;;11.60;54.20;98567.41;1702465;83;20972;-90
2021/11/20 11:34:53;;;;;;;7.12;2.40;;;;;;;11.59;53.32;98576.03;1703831;83;23302;-89
2021/11/20 11:38:03;;;;;;;10.58;3.30;;;;;;;11.61;53.42;98557.69;1701358;83;21094;-84
2021/11/20 11:40:43;;;;;;;6.03;2.33;;;;;;;11.60;53.08;98559.34;1690171;83;20982;-83
2021/11/20 11:43:42;;;;;;;6.80;2.47;;;;;;;11.61;53.06;98595.93;1693163;83;38701;-83
2021/11/20 11:46:29;;;;;;;8.43;2.60;;;;;;;11.61;53.09;98588.66;1701868;83;21405;-84
2021/11/20 11:49:37;;;;;;;13.22;3.02;;;;;;;11.62;53.07;98584.08;1706140;82;20932;-79
2021/11/20 11:52:18;;;;;;;7.70;3.52;;;;;;;11.61;53.43;98574.39;1699050;83;24561;-82
2021/11/20 11:54:48;;;;;;;6.75;3.35;;;;;;;11.60;53.72;98554.77;1664612;84;21032;-83
2021/11/20 11:57:20;;;;;;;6.72;2.30;;;;;;;11.59;53.32;98613.73;1670987;84;21080;-83
2021/11/20 12:00:05;;;;;;;4.20;1.93;;;;;;;11.61;53.50;98555.53;1691293;84;21623;-83
2021/11/20 12:02:52;;;;;;;6.70;2.62;;;;;;;11.61;52.67;98553.65;1638686;84;21384;-84